sensor_id;sensor_type;location;lat;lon;timestamp;pressure;altitude;pressure_sealevel;temperature;humidity
63351;BME280;64988;51.058;17.040;2023-06-14T00:04:28;100232.50;;;13.42;66.44
63351;BME280;64988;51.058;17.040;2023-06-14T00:09:56;100226.66;;;13.28;67.64
63351;BME280;64988;51.058;17.040;2023-06-14T00:15:23;100226.19;;;13.23;67.89
63351;BME280;64988;51.058;17.040;2023-06-14T00:20:51;100230.34;;;13.27;67.07
63351;BME280;64988;51.058;17.040;2023-06-14T00:26:19;100225.31;;;13.12;67.42
63351;BME280;64988;51.058;17.040;2023-06-14T00:31:47;100228.25;;;13.00;68.26
63351;BME280;64988;51.058;17.040;2023-06-14T00:37:14;100222.97;;;12.98;68.92
63351;BME280;64988;51.058;17.040;2023-06-14T00:42:42;100231.50;;;12.94;69.04
63351;BME280;64988;51.058;17.040;2023-06-14T00:48:09;100230.63;;;12.84;70.27
63351;BME280;64988;51.058;17.040;2023-06-14T00:53:38;100237.16;;;12.81;71.17
63351;BME280;64988;51.058;17.040;2023-06-14T00:59:06;100231.75;;;12.81;71.39
63351;BME280;64988;51.058;17.040;2023-06-14T01:04:34;100239.19;;;12.89;71.36
63351;BME280;64988;51.058;17.040;2023-06-14T01:15:52;100240.84;;;12.80;70.94
63351;BME280;64988;51.058;17.040;2023-06-14T01:21:24;100244.00;;;12.76;71.30
63351;BME280;64988;51.058;17.040;2023-06-14T01:26:54;100232.56;;;12.72;71.57
63351;BME280;64988;51.058;17.040;2023-06-14T01:32:28;100234.22;;;12.63;72.65
63351;BME280;64988;51.058;17.040;2023-06-14T01:37:56;100232.38;;;12.64;72.78
63351;BME280;64988;51.058;17.040;2023-06-14T01:43:30;100243.81;;;12.68;73.24
63351;BME280;64988;51.058;17.040;2023-06-14T01:48:59;100236.41;;;12.70;72.91
63351;BME280;64988;51.058;17.040;2023-06-14T01:54:26;100231.78;;;12.60;73.93
63351;BME280;64988;51.058;17.040;2023-06-14T01:59:54;100221.88;;;12.71;73.69
63351;BME280;64988;51.058;17.040;2023-06-14T02:05:23;100219.16;;;12.71;74.17
63351;BME280;64988;51.058;17.040;2023-06-14T02:10:52;100223.91;;;12.78;73.20
63351;BME280;64988;51.058;17.040;2023-06-14T02:16:21;100225.09;;;12.95;72.22
63351;BME280;64988;51.058;17.040;2023-06-14T02:21:49;100233.91;;;12.87;72.68
63351;BME280;64988;51.058;17.040;2023-06-14T02:27:18;100231.06;;;12.89;73.21
63351;BME280;64988;51.058;17.040;2023-06-14T02:32:46;100225.25;;;13.03;72.12
63351;BME280;64988;51.058;17.040;2023-06-14T02:38:17;100236.84;;;13.05;71.99
63351;BME280;64988;51.058;17.040;2023-06-14T02:43:44;100227.06;;;13.23;70.57
63351;BME280;64988;51.058;17.040;2023-06-14T02:49:12;100225.34;;;13.22;70.58
63351;BME280;64988;51.058;17.040;2023-06-14T02:54:40;100229.47;;;13.17;71.11
63351;BME280;64988;51.058;17.040;2023-06-14T03:00:10;100229.19;;;13.20;71.00
63351;BME280;64988;51.058;17.040;2023-06-14T03:05:45;100223.81;;;13.39;71.04
63351;BME280;64988;51.058;17.040;2023-06-14T03:11:16;100217.81;;;13.74;69.80
63351;BME280;64988;51.058;17.040;2023-06-14T03:16:48;100220.66;;;14.10;69.16
63351;BME280;64988;51.058;17.040;2023-06-14T03:22:18;100227.34;;;14.35;68.46
63351;BME280;64988;51.058;17.040;2023-06-14T03:27:46;100224.81;;;14.70;67.28
63351;BME280;64988;51.058;17.040;2023-06-14T03:33:15;100236.03;;;14.95;65.89
63351;BME280;64988;51.058;17.040;2023-06-14T03:38:42;100237.41;;;15.08;65.23
63351;BME280;64988;51.058;17.040;2023-06-14T03:44:17;100240.13;;;15.26;64.72
63351;BME280;64988;51.058;17.040;2023-06-14T03:49:47;100243.56;;;15.55;64.13
63351;BME280;64988;51.058;17.040;2023-06-14T03:55:15;100239.53;;;15.95;62.85
63351;BME280;64988;51.058;17.040;2023-06-14T04:00:47;100239.66;;;16.54;61.60
63351;BME280;64988;51.058;17.040;2023-06-14T04:06:14;100247.38;;;17.68;60.82
63351;BME280;64988;51.058;17.040;2023-06-14T04:11:48;100244.16;;;18.70;56.59
63351;BME280;64988;51.058;17.040;2023-06-14T04:17:16;100243.59;;;19.29;53.54
63351;BME280;64988;51.058;17.040;2023-06-14T04:22:44;100250.66;;;19.63;51.64
63351;BME280;64988;51.058;17.040;2023-06-14T04:28:12;100251.19;;;20.12;52.11
63351;BME280;64988;51.058;17.040;2023-06-14T04:33:43;100255.69;;;20.65;49.50
63351;BME280;64988;51.058;17.040;2023-06-14T04:39:19;100239.06;;;20.81;48.97
63351;BME280;64988;51.058;17.040;2023-06-14T04:44:48;100248.50;;;21.16;49.32
63351;BME280;64988;51.058;17.040;2023-06-14T04:50:16;100250.00;;;27.96;36.62
63351;BME280;64988;51.058;17.040;2023-06-14T04:55:46;100263.72;;;30.96;29.47
63351;BME280;64988;51.058;17.040;2023-06-14T05:01:14;100281.81;;;21.13;47.01
63351;BME280;64988;51.058;17.040;2023-06-14T05:06:43;100292.91;;;19.99;50.10
63351;BME280;64988;51.058;17.040;2023-06-14T05:12:16;100276.66;;;19.20;52.05
63351;BME280;64988;51.058;17.040;2023-06-14T05:17:49;100280.53;;;18.86;52.20
63351;BME280;64988;51.058;17.040;2023-06-14T05:23:22;100286.25;;;20.16;49.77
63351;BME280;64988;51.058;17.040;2023-06-14T05:28:49;100280.19;;;20.66;49.05
63351;BME280;64988;51.058;17.040;2023-06-14T05:34:17;100283.09;;;22.32;45.89
63351;BME280;64988;51.058;17.040;2023-06-14T05:39:44;100277.03;;;23.27;42.96
63351;BME280;64988;51.058;17.040;2023-06-14T05:45:12;100279.94;;;26.02;37.03
63351;BME280;64988;51.058;17.040;2023-06-14T05:50:41;100276.88;;;22.94;43.69
63351;BME280;64988;51.058;17.040;2023-06-14T05:56:09;100282.56;;;23.27;42.83
63351;BME280;64988;51.058;17.040;2023-06-14T06:01:36;100279.00;;;25.06;39.32
63351;BME280;64988;51.058;17.040;2023-06-14T06:07:04;100291.34;;;25.81;37.79
63351;BME280;64988;51.058;17.040;2023-06-14T06:12:32;100299.69;;;25.68;37.40
63351;BME280;64988;51.058;17.040;2023-06-14T06:18:00;100290.13;;;26.46;36.27
63351;BME280;64988;51.058;17.040;2023-06-14T06:23:28;100290.63;;;29.14;31.97
63351;BME280;64988;51.058;17.040;2023-06-14T06:28:56;100297.63;;;30.43;30.09
63351;BME280;64988;51.058;17.040;2023-06-14T06:34:26;100307.63;;;31.56;28.75
63351;BME280;64988;51.058;17.040;2023-06-14T06:39:54;100301.75;;;35.04;24.28
63351;BME280;64988;51.058;17.040;2023-06-14T06:45:22;100306.97;;;32.89;24.63
63351;BME280;64988;51.058;17.040;2023-06-14T06:50:51;100313.75;;;31.19;27.18
63351;BME280;64988;51.058;17.040;2023-06-14T06:56:20;100323.59;;;29.92;28.90
63351;BME280;64988;51.058;17.040;2023-06-14T07:01:49;100324.13;;;30.91;28.44
63351;BME280;64988;51.058;17.040;2023-06-14T07:07:20;100330.28;;;30.19;28.98
63351;BME280;64988;51.058;17.040;2023-06-14T07:12:50;100333.16;;;31.31;27.47
63351;BME280;64988;51.058;17.040;2023-06-14T07:18:19;100327.53;;;32.24;26.69
63351;BME280;64988;51.058;17.040;2023-06-14T07:23:49;100328.25;;;32.15;25.79
63351;BME280;64988;51.058;17.040;2023-06-14T07:29:16;100324.50;;;30.09;28.74
63351;BME280;64988;51.058;17.040;2023-06-14T07:34:44;100318.03;;;33.48;25.15
63351;BME280;64988;51.058;17.040;2023-06-14T07:40:13;100307.34;;;37.41;19.96
63351;BME280;64988;51.058;17.040;2023-06-14T07:45:41;100326.13;;;33.86;23.53
63351;BME280;64988;51.058;17.040;2023-06-14T07:51:30;100317.63;;;33.29;24.75
63351;BME280;64988;51.058;17.040;2023-06-14T07:56:57;100321.44;;;33.55;23.93
63351;BME280;64988;51.058;17.040;2023-06-14T08:02:27;100334.50;;;31.29;27.00
63351;BME280;64988;51.058;17.040;2023-06-14T08:07:59;100332.09;;;29.04;30.46
63351;BME280;64988;51.058;17.040;2023-06-14T08:13:28;100323.59;;;30.77;27.76
63351;BME280;64988;51.058;17.040;2023-06-14T08:18:56;100310.69;;;36.80;21.06
63351;BME280;64988;51.058;17.040;2023-06-14T08:24:26;100317.19;;;38.75;18.84
63351;BME280;64988;51.058;17.040;2023-06-14T08:29:54;100326.91;;;38.88;17.94
63351;BME280;64988;51.058;17.040;2023-06-14T08:35:22;100330.91;;;34.68;21.62
63351;BME280;64988;51.058;17.040;2023-06-14T08:40:52;100327.03;;;33.55;23.75
63351;BME280;64988;51.058;17.040;2023-06-14T08:46:26;100320.03;;;32.30;25.41
63351;BME280;64988;51.058;17.040;2023-06-14T08:52:00;100311.88;;;35.30;22.19
63351;BME280;64988;51.058;17.040;2023-06-14T08:57:29;100314.34;;;37.72;19.54
63351;BME280;64988;51.058;17.040;2023-06-14T09:02:57;100328.81;;;37.89;18.59
63351;BME280;64988;51.058;17.040;2023-06-14T09:08:26;100330.94;;;34.73;21.76
63351;BME280;64988;51.058;17.040;2023-06-14T09:13:57;100322.22;;;33.08;24.16
63351;BME280;64988;51.058;17.040;2023-06-14T09:19:31;100318.47;;;29.49;29.13
63351;BME280;64988;51.058;17.040;2023-06-14T09:25:01;100327.06;;;28.42;30.99
63351;BME280;64988;51.058;17.040;2023-06-14T09:30:28;100321.03;;;27.42;32.78
63351;BME280;64988;51.058;17.040;2023-06-14T09:35:55;100326.06;;;27.09;34.08
63351;BME280;64988;51.058;17.040;2023-06-14T09:41:35;100310.81;;;27.00;33.92
63351;BME280;64988;51.058;17.040;2023-06-14T09:47:05;100315.81;;;26.29;35.90
63351;BME280;64988;51.058;17.040;2023-06-14T09:52:33;100324.34;;;26.14;37.30
63351;BME280;64988;51.058;17.040;2023-06-14T09:58:04;100322.22;;;30.35;34.63
63351;BME280;64988;51.058;17.040;2023-06-14T10:03:33;60571.50;;;-143.37;100.00
63351;BME280;64988;51.058;17.040;2023-06-14T10:09:22;60571.50;;;-143.37;100.00
63351;BME280;64988;51.058;17.040;2023-06-14T10:14:51;60571.50;;;-143.37;100.00
63351;BME280;64988;51.058;17.040;2023-06-14T10:20:45;60571.50;;;-143.37;100.00
63351;BME280;64988;51.058;17.040;2023-06-14T10:26:23;60571.50;;;-143.37;100.00
63351;BME280;64988;51.058;17.040;2023-06-14T10:31:57;60571.50;;;-143.37;100.00
63351;BME280;64988;51.058;17.040;2023-06-14T10:37:27;60571.50;;;-143.37;100.00
63351;BME280;64988;51.058;17.040;2023-06-14T10:42:55;60571.50;;;-143.37;100.00
63351;BME280;64988;51.058;17.040;2023-06-14T10:48:29;60571.50;;;-143.37;100.00
63351;BME280;64988;51.058;17.040;2023-06-14T10:53:59;60571.50;;;-143.37;100.00
63351;BME280;64988;51.058;17.040;2023-06-14T10:59:26;60571.50;;;-143.37;100.00
63351;BME280;64988;51.058;17.040;2023-06-14T11:04:54;60571.50;;;-143.37;100.00
63351;BME280;64988;51.058;17.040;2023-06-14T11:10:40;60571.50;;;-143.37;100.00
63351;BME280;64988;51.058;17.040;2023-06-14T11:16:14;60571.50;;;-143.37;100.00
63351;BME280;64988;51.058;17.040;2023-06-14T11:21:47;60571.50;;;-143.37;100.00
63351;BME280;64988;51.058;17.040;2023-06-14T11:27:16;60571.50;;;-143.37;100.00
63351;BME280;64988;51.058;17.040;2023-06-14T11:32:46;60571.50;;;-143.37;100.00
63351;BME280;64988;51.058;17.040;2023-06-14T11:38:15;60571.50;;;-143.37;100.00
63351;BME280;64988;51.058;17.040;2023-06-14T11:43:42;60571.50;;;-143.37;100.00
63351;BME280;64988;51.058;17.040;2023-06-14T11:49:10;60571.50;;;-143.37;100.00
63351;BME280;64988;51.058;17.040;2023-06-14T11:54:38;60571.50;;;-143.37;100.00
63351;BME280;64988;51.058;17.040;2023-06-14T12:00:10;60571.50;;;-143.37;100.00
63351;BME280;64988;51.058;17.040;2023-06-14T12:05:39;60571.50;;;-143.37;100.00
63351;BME280;64988;51.058;17.040;2023-06-14T12:11:11;60571.50;;;-143.37;100.00
63351;BME280;64988;51.058;17.040;2023-06-14T12:16:39;60571.50;;;-143.37;100.00
63351;BME280;64988;51.058;17.040;2023-06-14T12:22:10;60571.50;;;-143.37;100.00
63351;BME280;64988;51.058;17.040;2023-06-14T12:27:39;60571.50;;;-143.37;100.00
63351;BME280;64988;51.058;17.040;2023-06-14T12:33:07;60571.50;;;-143.37;100.00
63351;BME280;64988;51.058;17.040;2023-06-14T12:38:36;60571.50;;;-143.37;100.00
63351;BME280;64988;51.058;17.040;2023-06-14T12:44:06;60571.50;;;-143.37;100.00
63351;BME280;64988;51.058;17.040;2023-06-14T12:49:34;60571.50;;;-143.37;100.00
63351;BME280;64988;51.058;17.040;2023-06-14T12:55:05;60571.50;;;-143.37;100.00
63351;BME280;64988;51.058;17.040;2023-06-14T13:00:35;60571.50;;;-143.37;100.00
63351;BME280;64988;51.058;17.040;2023-06-14T13:06:02;60571.50;;;-143.37;100.00
63351;BME280;64988;51.058;17.040;2023-06-14T13:11:31;60571.50;;;-143.37;100.00
63351;BME280;64988;51.058;17.040;2023-06-14T13:16:59;60571.50;;;-143.37;100.00
63351;BME280;64988;51.058;17.040;2023-06-14T13:22:30;60571.50;;;-143.37;100.00
63351;BME280;64988;51.058;17.040;2023-06-14T13:28:00;60571.50;;;-143.37;100.00
63351;BME280;64988;51.058;17.040;2023-06-14T13:33:27;60571.50;;;-143.37;100.00
63351;BME280;64988;51.058;17.040;2023-06-14T13:38:56;60571.50;;;-143.37;100.00
63351;BME280;64988;51.058;17.040;2023-06-14T13:44:27;60571.50;;;-143.37;100.00
63351;BME280;64988;51.058;17.040;2023-06-14T13:49:56;60571.50;;;-143.37;100.00
63351;BME280;64988;51.058;17.040;2023-06-14T13:55:25;60571.50;;;-143.37;100.00
63351;BME280;64988;51.058;17.040;2023-06-14T14:00:52;60571.50;;;-143.37;100.00
63351;BME280;64988;51.058;17.040;2023-06-14T14:06:20;60571.50;;;-143.37;100.00
63351;BME280;64988;51.058;17.040;2023-06-14T14:11:47;60571.50;;;-143.37;100.00
63351;BME280;64988;51.058;17.040;2023-06-14T14:17:15;60571.50;;;-143.37;100.00
63351;BME280;64988;51.058;17.040;2023-06-14T14:22:43;60571.50;;;-143.37;100.00
63351;BME280;64988;51.058;17.040;2023-06-14T14:28:11;60571.50;;;-143.37;100.00
63351;BME280;64988;51.058;17.040;2023-06-14T14:33:38;60571.50;;;-143.37;100.00
63351;BME280;64988;51.058;17.040;2023-06-14T14:39:06;60571.50;;;-143.37;100.00
63351;BME280;64988;51.058;17.040;2023-06-14T14:44:34;60571.50;;;-143.37;100.00
63351;BME280;64988;51.058;17.040;2023-06-14T14:50:02;60571.50;;;-143.37;100.00
63351;BME280;64988;51.058;17.040;2023-06-14T14:55:31;60571.50;;;-143.37;100.00
63351;BME280;64988;51.058;17.040;2023-06-14T15:01:02;60571.50;;;-143.37;100.00
63351;BME280;64988;51.058;17.040;2023-06-14T15:06:29;60571.50;;;-143.37;100.00
63351;BME280;64988;51.058;17.040;2023-06-14T15:11:58;60571.50;;;-143.37;100.00
63351;BME280;64988;51.058;17.040;2023-06-14T15:17:25;60571.50;;;-143.37;100.00
63351;BME280;64988;51.058;17.040;2023-06-14T15:22:54;60571.50;;;-143.37;100.00
63351;BME280;64988;51.058;17.040;2023-06-14T15:28:29;60571.50;;;-143.37;100.00
63351;BME280;64988;51.058;17.040;2023-06-14T15:33:57;60571.50;;;-143.37;100.00
63351;BME280;64988;51.058;17.040;2023-06-14T15:39:25;60571.50;;;-143.37;100.00
63351;BME280;64988;51.058;17.040;2023-06-14T15:44:53;60571.50;;;-143.37;100.00
63351;BME280;64988;51.058;17.040;2023-06-14T15:50:21;60571.50;;;-143.37;100.00
63351;BME280;64988;51.058;17.040;2023-06-14T15:55:48;60571.50;;;-143.37;100.00
63351;BME280;64988;51.058;17.040;2023-06-14T16:01:16;60571.50;;;-143.37;100.00
63351;BME280;64988;51.058;17.040;2023-06-14T16:06:46;60571.50;;;-143.37;100.00
63351;BME280;64988;51.058;17.040;2023-06-14T16:12:38;60571.50;;;-143.37;100.00
63351;BME280;64988;51.058;17.040;2023-06-14T16:18:05;60571.50;;;-143.37;100.00
63351;BME280;64988;51.058;17.040;2023-06-14T16:23:33;60571.50;;;-143.37;100.00
63351;BME280;64988;51.058;17.040;2023-06-14T16:29:01;60571.50;;;-143.37;100.00
63351;BME280;64988;51.058;17.040;2023-06-14T16:34:29;60571.50;;;-143.37;100.00
63351;BME280;64988;51.058;17.040;2023-06-14T16:39:58;60571.50;;;-143.37;100.00
63351;BME280;64988;51.058;17.040;2023-06-14T16:45:26;60571.50;;;-143.37;100.00
63351;BME280;64988;51.058;17.040;2023-06-14T16:50:54;60571.50;;;-143.37;100.00
63351;BME280;64988;51.058;17.040;2023-06-14T16:56:22;60571.50;;;-143.37;100.00
63351;BME280;64988;51.058;17.040;2023-06-14T17:02:00;60571.50;;;-143.37;100.00
63351;BME280;64988;51.058;17.040;2023-06-14T17:07:32;60571.50;;;-143.37;100.00
63351;BME280;64988;51.058;17.040;2023-06-14T17:12:59;60571.50;;;-143.37;100.00
63351;BME280;64988;51.058;17.040;2023-06-14T17:18:27;60571.50;;;-143.37;100.00
63351;BME280;64988;51.058;17.040;2023-06-14T17:23:55;60571.50;;;-143.37;100.00
63351;BME280;64988;51.058;17.040;2023-06-14T17:29:23;60571.50;;;-143.37;100.00
63351;BME280;64988;51.058;17.040;2023-06-14T17:34:54;60571.50;;;-143.37;100.00
63351;BME280;64988;51.058;17.040;2023-06-14T17:40:22;60571.50;;;-143.37;100.00
63351;BME280;64988;51.058;17.040;2023-06-14T17:45:49;60571.50;;;-143.37;100.00
63351;BME280;64988;51.058;17.040;2023-06-14T17:51:17;60571.50;;;-143.37;100.00
63351;BME280;64988;51.058;17.040;2023-06-14T17:56:46;60571.50;;;-143.37;100.00
63351;BME280;64988;51.058;17.040;2023-06-14T18:02:15;60571.50;;;-143.37;100.00
63351;BME280;64988;51.058;17.040;2023-06-14T18:07:43;60571.50;;;-143.37;100.00
63351;BME280;64988;51.058;17.040;2023-06-14T18:13:11;60571.50;;;-143.37;100.00
63351;BME280;64988;51.058;17.040;2023-06-14T18:18:40;60571.50;;;-143.37;100.00
63351;BME280;64988;51.058;17.040;2023-06-14T18:24:08;60571.50;;;-143.37;100.00
63351;BME280;64988;51.058;17.040;2023-06-14T18:29:37;60571.50;;;-143.37;100.00
63351;BME280;64988;51.058;17.040;2023-06-14T18:35:05;60571.50;;;-143.37;100.00
63351;BME280;64988;51.058;17.040;2023-06-14T18:40:33;60571.50;;;-143.37;100.00
63351;BME280;64988;51.058;17.040;2023-06-14T18:46:01;60571.50;;;-143.37;100.00
63351;BME280;64988;51.058;17.040;2023-06-14T18:51:29;60571.50;;;-143.37;100.00
63351;BME280;64988;51.058;17.040;2023-06-14T18:56:56;60571.50;;;-143.37;100.00
63351;BME280;64988;51.058;17.040;2023-06-14T19:02:24;60571.50;;;-143.37;100.00
63351;BME280;64988;51.058;17.040;2023-06-14T19:07:54;60571.50;;;-143.37;100.00
63351;BME280;64988;51.058;17.040;2023-06-14T19:13:21;60571.50;;;-143.37;100.00
63351;BME280;64988;51.058;17.040;2023-06-14T19:18:49;60571.50;;;-143.37;100.00
63351;BME280;64988;51.058;17.040;2023-06-14T19:24:16;60571.50;;;-143.37;100.00
63351;BME280;64988;51.058;17.040;2023-06-14T19:29:44;60571.50;;;-143.37;100.00
63351;BME280;64988;51.058;17.040;2023-06-14T19:35:12;60571.50;;;-143.37;100.00
63351;BME280;64988;51.058;17.040;2023-06-14T19:40:41;60571.50;;;-143.37;100.00
63351;BME280;64988;51.058;17.040;2023-06-14T19:46:08;60571.50;;;-143.37;100.00
63351;BME280;64988;51.058;17.040;2023-06-14T19:51:35;60571.50;;;-143.37;100.00
63351;BME280;64988;51.058;17.040;2023-06-14T19:57:04;60571.50;;;-143.37;100.00
63351;BME280;64988;51.058;17.040;2023-06-14T20:02:32;60571.50;;;-143.37;100.00
63351;BME280;64988;51.058;17.040;2023-06-14T20:08:00;60571.50;;;-143.37;100.00
63351;BME280;64988;51.058;17.040;2023-06-14T20:13:28;60571.50;;;-143.37;100.00
63351;BME280;64988;51.058;17.040;2023-06-14T20:18:56;60571.50;;;-143.37;100.00
63351;BME280;64988;51.058;17.040;2023-06-14T20:24:26;60571.50;;;-143.37;100.00
63351;BME280;64988;51.058;17.040;2023-06-14T20:29:53;60571.50;;;-143.37;100.00
63351;BME280;64988;51.058;17.040;2023-06-14T20:35:21;60571.50;;;-143.37;100.00
63351;BME280;64988;51.058;17.040;2023-06-14T20:40:51;60571.50;;;-143.37;100.00
63351;BME280;64988;51.058;17.040;2023-06-14T20:46:20;60571.50;;;-143.37;100.00
63351;BME280;64988;51.058;17.040;2023-06-14T20:51:47;60571.50;;;-143.37;100.00
63351;BME280;64988;51.058;17.040;2023-06-14T20:57:16;60571.50;;;-143.37;100.00
63351;BME280;64988;51.058;17.040;2023-06-14T21:02:44;60571.50;;;-143.37;100.00
63351;BME280;64988;51.058;17.040;2023-06-14T21:08:11;60571.50;;;-143.37;100.00
63351;BME280;64988;51.058;17.040;2023-06-14T21:13:39;60571.50;;;-143.37;100.00
63351;BME280;64988;51.058;17.040;2023-06-14T21:19:06;60571.50;;;-143.37;100.00
63351;BME280;64988;51.058;17.040;2023-06-14T21:24:33;60571.50;;;-143.37;100.00
63351;BME280;64988;51.058;17.040;2023-06-14T21:30:04;60571.50;;;-143.37;100.00
63351;BME280;64988;51.058;17.040;2023-06-14T21:35:35;60571.50;;;-143.37;100.00
63351;BME280;64988;51.058;17.040;2023-06-14T21:41:01;60571.50;;;-143.37;100.00
63351;BME280;64988;51.058;17.040;2023-06-14T21:46:29;60571.50;;;-143.37;100.00
63351;BME280;64988;51.058;17.040;2023-06-14T21:51:58;60571.50;;;-143.37;100.00
63351;BME280;64988;51.058;17.040;2023-06-14T21:57:26;60571.50;;;-143.37;100.00
63351;BME280;64988;51.058;17.040;2023-06-14T22:02:53;60571.50;;;-143.37;100.00
63351;BME280;64988;51.058;17.040;2023-06-14T22:08:21;60571.50;;;-143.37;100.00
63351;BME280;64988;51.058;17.040;2023-06-14T22:13:48;60571.50;;;-143.37;100.00
63351;BME280;64988;51.058;17.040;2023-06-14T22:19:15;60571.50;;;-143.37;100.00
63351;BME280;64988;51.058;17.040;2023-06-14T22:24:44;60571.50;;;-143.37;100.00
63351;BME280;64988;51.058;17.040;2023-06-14T22:30:13;60571.50;;;-143.37;100.00
63351;BME280;64988;51.058;17.040;2023-06-14T22:35:41;60571.50;;;-143.37;100.00
63351;BME280;64988;51.058;17.040;2023-06-14T22:41:09;60571.50;;;-143.37;100.00
63351;BME280;64988;51.058;17.040;2023-06-14T22:46:37;60571.50;;;-143.37;100.00
63351;BME280;64988;51.058;17.040;2023-06-14T22:52:07;60571.50;;;-143.37;100.00
63351;BME280;64988;51.058;17.040;2023-06-14T22:57:40;60571.50;;;-143.37;100.00
63351;BME280;64988;51.058;17.040;2023-06-14T23:03:13;60571.50;;;-143.37;100.00
63351;BME280;64988;51.058;17.040;2023-06-14T23:08:41;60571.50;;;-143.37;100.00
63351;BME280;64988;51.058;17.040;2023-06-14T23:14:12;60571.50;;;-143.37;100.00
63351;BME280;64988;51.058;17.040;2023-06-14T23:19:40;60571.50;;;-143.37;100.00
63351;BME280;64988;51.058;17.040;2023-06-14T23:25:08;60571.50;;;-143.37;100.00
63351;BME280;64988;51.058;17.040;2023-06-14T23:30:36;60571.50;;;-143.37;100.00
63351;BME280;64988;51.058;17.040;2023-06-14T23:36:04;60571.50;;;-143.37;100.00
63351;BME280;64988;51.058;17.040;2023-06-14T23:41:35;60571.50;;;-143.37;100.00
63351;BME280;64988;51.058;17.040;2023-06-14T23:47:03;60571.50;;;-143.37;100.00
63351;BME280;64988;51.058;17.040;2023-06-14T23:52:32;60571.50;;;-143.37;100.00
63351;BME280;64988;51.058;17.040;2023-06-14T23:57:59;60571.50;;;-143.37;100.00
